createdAt,value
2019-01-16T00:01:27.995Z,0.90
2019-01-16T00:03:57.692Z,0.90
2019-01-16T00:08:28.452Z,0.80
2019-01-16T00:11:05.071Z,0.80
2019-01-16T00:14:05.774Z,0.70
2019-01-16T00:16:48.559Z,0.70
2019-01-16T00:19:17.280Z,0.70
2019-01-16T00:22:00.047Z,0.70
2019-01-16T00:24:27.938Z,0.60
2019-01-16T00:26:54.831Z,0.60
2019-01-16T00:29:24.588Z,0.60
2019-01-16T00:31:51.451Z,0.50
2019-01-16T00:34:22.088Z,0.50
2019-01-16T00:36:51.854Z,0.50
2019-01-16T00:41:23.627Z,0.50
2019-01-16T00:43:50.481Z,0.50
2019-01-16T00:46:24.172Z,0.50
2019-01-16T00:48:51.024Z,0.50
2019-01-16T00:51:25.665Z,0.50
2019-01-16T00:53:59.457Z,0.50
2019-01-16T00:56:41.322Z,0.50
2019-01-16T00:59:14.233Z,0.50
2019-01-16T01:01:59.912Z,0.50
2019-01-16T01:04:27.701Z,0.50
2019-01-16T01:06:58.367Z,0.40
2019-01-16T01:09:26.334Z,0.40
2019-01-16T01:12:12.967Z,0.40
2019-01-16T01:14:40.912Z,0.40
2019-01-16T01:17:12.849Z,0.40
2019-01-16T01:19:40.508Z,0.30
2019-01-16T01:22:07.387Z,0.30
2019-01-16T01:26:41.243Z,0.30
2019-01-16T01:29:22.928Z,0.30
2019-01-16T01:31:50.883Z,0.30
2019-01-16T01:34:17.821Z,0.30
2019-01-16T01:49:29.694Z,0.30
2019-01-16T01:51:58.315Z,0.30
2019-01-16T01:56:30.190Z,0.10
2019-01-16T01:59:01.829Z,0.10
2019-01-16T02:01:35.450Z,0.10
2019-01-16T02:04:08.085Z,0.10
2019-01-16T02:06:36.054Z,0.10
2019-01-16T02:09:06.675Z,0.10
2019-01-16T02:13:35.519Z,0.10
2019-01-16T02:18:08.255Z,0.10
2019-01-16T02:20:40.935Z,0.10
2019-01-16T02:25:11.843Z,0.00
2019-01-16T02:27:41.482Z,0.00
2019-01-16T02:30:11.684Z,0.00
2019-01-16T02:32:41.358Z,0.00
2019-01-16T02:35:12.237Z,0.00
2019-01-16T02:39:45.176Z,0.00
2019-01-16T02:42:14.921Z,0.00
2019-01-16T02:44:42.808Z,-0.10
2019-01-16T02:47:11.446Z,-0.10
2019-01-16T02:49:43.299Z,-0.10
2019-01-16T02:52:15.967Z,-0.10
2019-01-16T02:55:15.705Z,-0.10
2019-01-16T02:57:48.483Z,-0.10
2019-01-16T03:00:20.240Z,-0.10
2019-01-16T03:02:47.051Z,-0.20
2019-01-16T03:05:14.803Z,-0.20
2019-01-16T03:07:47.517Z,-0.20
2019-01-16T03:10:19.251Z,-0.20
2019-01-16T03:12:47.934Z,-0.20
2019-01-16T03:15:14.802Z,-0.20
2019-01-16T03:19:49.714Z,-0.20
2019-01-16T03:22:18.383Z,-0.20
2019-01-16T03:24:46.097Z,-0.20
2019-01-16T03:27:19.638Z,-0.30
2019-01-16T03:31:49.579Z,-0.30
2019-01-16T03:34:19.225Z,-0.30
2019-01-16T03:38:47.840Z,-0.20
2019-01-16T03:41:22.473Z,-0.30
2019-01-16T03:43:55.246Z,-0.30
2019-01-16T03:46:42.031Z,-0.30
2019-01-16T03:49:13.676Z,-0.30
2019-01-16T03:51:40.505Z,-0.30
2019-01-16T03:54:14.177Z,-0.30
2019-01-16T03:56:42.956Z,-0.40
2019-01-16T04:01:12.725Z,-0.30
2019-01-16T04:05:47.423Z,-0.40
2019-01-16T04:09:16.159Z,-0.40
2019-01-16T04:11:43.029Z,-0.30
2019-01-16T04:14:11.779Z,-0.40
2019-01-16T04:16:42.563Z,-0.40
2019-01-16T04:19:09.388Z,-0.40
2019-01-16T04:23:38.253Z,-0.40
2019-01-16T04:28:07.968Z,-0.40
2019-01-16T04:30:38.584Z,-0.40
2019-01-16T04:33:07.268Z,-0.40
2019-01-16T04:35:35.072Z,-0.40
2019-01-16T04:38:05.684Z,-0.40
2019-01-16T04:40:35.290Z,-0.40
2019-01-16T04:45:06.201Z,-0.40
2019-01-16T04:47:45.851Z,-0.40
2019-01-16T04:50:13.832Z,-0.40
2019-01-16T04:52:41.758Z,-0.40
2019-01-16T04:55:18.864Z,-0.40
2019-01-16T04:57:46.494Z,-0.40
2019-01-16T05:02:19.640Z,-0.40
2019-01-16T05:04:47.515Z,-0.40
2019-01-16T05:07:16.096Z,-0.50
2019-01-16T05:09:50.744Z,-0.50
2019-01-16T05:12:20.581Z,-0.40
2019-01-16T05:14:49.179Z,-0.50
2019-01-16T05:18:16.008Z,-0.50
2019-01-16T05:20:43.667Z,-0.50
2019-01-16T05:23:12.362Z,-0.50
2019-01-16T05:27:43.343Z,-0.50
2019-01-16T05:30:17.478Z,-0.50
2019-01-16T05:34:47.196Z,-0.50
2019-01-16T05:37:14.015Z,-0.50
2019-01-16T05:39:41.855Z,-0.50
2019-01-16T05:42:08.839Z,-0.50
2019-01-16T05:44:40.423Z,-0.50
2019-01-16T05:47:12.087Z,-0.50
2019-01-16T05:49:46.552Z,-0.50
2019-01-16T05:52:09.863Z,-0.50
2019-01-16T05:54:44.532Z,-0.50
2019-01-16T05:57:14.347Z,-0.50
2019-01-16T05:59:44.947Z,-0.50
2019-01-16T06:02:12.811Z,-0.50
2019-01-16T06:04:43.457Z,-0.60
2019-01-16T06:07:11.312Z,-0.50
2019-01-16T06:09:40.940Z,-0.50
2019-01-16T06:12:07.873Z,-0.50
2019-01-16T06:14:42.792Z,-0.50
2019-01-16T06:17:11.356Z,-0.50
2019-01-16T06:19:39.976Z,-0.50
2019-01-16T06:22:07.877Z,-0.50
2019-01-16T06:24:35.643Z,-0.50
2019-01-16T06:27:08.340Z,-0.50
2019-01-16T06:29:52.060Z,-0.50
2019-01-16T06:32:24.723Z,-0.50
2019-01-16T06:36:57.165Z,-0.50
2019-01-16T06:39:25.055Z,-0.50
2019-01-16T06:42:11.991Z,-0.50
2019-01-16T06:44:39.886Z,-0.60
2019-01-16T06:48:09.787Z,-0.60
2019-01-16T06:50:39.404Z,-0.60
2019-01-16T06:53:10.107Z,-0.60
2019-01-16T06:57:41.110Z,-0.60
2019-01-16T07:00:14.089Z,-0.60
2019-01-16T07:02:42.011Z,-0.60
2019-01-16T07:05:10.822Z,-0.60
2019-01-16T07:07:43.472Z,-0.60
2019-01-16T07:10:18.103Z,-0.60
2019-01-16T07:12:46.782Z,-0.60
2019-01-16T07:15:24.482Z,-0.60
2019-01-16T07:17:51.376Z,-0.60
2019-01-16T07:21:15.971Z,-0.60
2019-01-16T07:23:43.794Z,-0.60
2019-01-16T07:26:10.667Z,-0.60
2019-01-16T07:28:40.451Z,-0.50
2019-01-16T07:31:22.054Z,-0.50
2019-01-16T07:33:51.702Z,-0.50
2019-01-16T07:36:23.551Z,-0.50
2019-01-16T07:38:51.310Z,-0.50
2019-01-16T07:42:18.160Z,-0.50
2019-01-16T07:44:51.783Z,-0.50
2019-01-16T07:47:21.560Z,-0.50
2019-01-16T07:49:49.226Z,-0.50
2019-01-16T07:52:19.902Z,-0.40
2019-01-16T07:56:49.053Z,-0.40
2019-01-16T08:01:18.264Z,-0.40
2019-01-16T08:04:53.319Z,-0.40
2019-01-16T08:07:21.172Z,-0.30
2019-01-16T08:09:49.150Z,-0.30
2019-01-16T08:12:27.080Z,-0.30
2019-01-16T08:16:55.779Z,-0.30
2019-01-16T08:19:28.415Z,-0.30
2019-01-16T08:24:00.190Z,-0.30
2019-01-16T08:27:30.967Z,-0.20
2019-01-16T08:30:15.727Z,-0.20
2019-01-16T08:32:45.441Z,-0.20
2019-01-16T08:35:17.195Z,-0.20
2019-01-16T08:37:45.142Z,-0.20
2019-01-16T08:40:44.547Z,-0.20
2019-01-16T08:43:11.476Z,-0.20
2019-01-16T08:45:41.193Z,-0.10
2019-01-16T08:50:10.959Z,-0.20
2019-01-16T08:52:38.784Z,-0.10
2019-01-16T08:55:07.562Z,-0.10
2019-01-16T08:57:55.600Z,-0.10
2019-01-16T09:00:53.497Z,-0.10
2019-01-16T09:03:22.100Z,-0.10
2019-01-16T09:06:06.032Z,0.00
2019-01-16T09:08:33.673Z,0.00
2019-01-16T09:13:02.745Z,0.00
2019-01-16T09:15:35.197Z,0.00
2019-01-16T09:19:06.307Z,0.00
2019-01-16T09:21:51.102Z,0.10
2019-01-16T09:24:17.913Z,0.10
2019-01-16T09:28:51.660Z,0.10
2019-01-16T09:31:20.277Z,0.10
2019-01-16T09:33:50.979Z,0.20
2019-01-16T09:36:18.938Z,0.20
2019-01-16T09:38:46.923Z,0.20
2019-01-16T09:41:18.617Z,0.30
2019-01-16T09:43:45.443Z,0.30
2019-01-16T09:46:13.382Z,0.30
2019-01-16T09:48:40.253Z,0.30
2019-01-16T09:51:39.153Z,0.30
2019-01-16T09:54:06.939Z,0.30
2019-01-16T09:56:39.160Z,0.40
2019-01-16T09:59:08.096Z,0.40
2019-01-16T10:01:36.324Z,0.40
2019-01-16T10:04:04.528Z,0.40
2019-01-16T10:06:32.460Z,0.50
2019-01-16T10:11:02.281Z,0.50
2019-01-16T10:13:30.006Z,0.60
2019-01-16T10:16:31.841Z,0.60
2019-01-16T10:19:02.503Z,0.60
2019-01-16T10:22:34.523Z,0.60
2019-01-16T10:25:01.362Z,0.70
2019-01-16T10:27:29.356Z,0.80
2019-01-16T10:30:13.992Z,0.80
2019-01-16T10:33:00.648Z,0.80
2019-01-16T10:35:28.471Z,0.90
2019-01-16T10:37:56.332Z,0.90
2019-01-16T10:40:24.171Z,0.90
2019-01-16T10:43:00.013Z,1.00
2019-01-16T10:45:26.869Z,1.00
2019-01-16T10:48:02.286Z,1.00
2019-01-16T10:50:30.501Z,1.00
2019-01-16T10:53:03.468Z,1.10
2019-01-16T10:57:36.690Z,1.10
2019-01-16T11:02:10.116Z,1.10
2019-01-16T11:06:39.698Z,1.20
2019-01-16T11:09:09.379Z,1.20
2019-01-16T11:11:40.830Z,1.20
2019-01-16T11:14:09.912Z,1.20
2019-01-16T11:16:38.703Z,1.20
2019-01-16T11:19:39.210Z,1.20
2019-01-16T11:22:07.316Z,1.30
2019-01-16T11:24:38.974Z,1.30
2019-01-16T11:27:12.896Z,1.30
2019-01-16T11:29:39.755Z,1.40
2019-01-16T11:32:07.659Z,1.40
2019-01-16T11:34:37.450Z,1.40
2019-01-16T11:37:05.375Z,1.40
2019-01-16T11:39:32.304Z,1.50
2019-01-16T11:42:02.135Z,1.50
2019-01-16T11:44:36.112Z,1.50
2019-01-16T11:47:08.927Z,1.50
2019-01-16T11:49:37.656Z,1.60
2019-01-16T11:52:08.471Z,1.60
2019-01-16T11:54:36.312Z,1.70
2019-01-16T11:57:13.023Z,1.70
2019-01-16T11:59:46.651Z,1.70
2019-01-16T12:02:16.579Z,1.70
2019-01-16T12:04:48.732Z,1.70
2019-01-16T12:07:14.544Z,1.70
2019-01-16T12:09:45.245Z,1.80
2019-01-16T12:12:14.900Z,1.80
2019-01-16T12:14:48.709Z,1.90
2019-01-16T12:17:16.487Z,1.90
2019-01-16T12:19:46.332Z,2.00
2019-01-16T12:22:14.243Z,2.00
2019-01-16T12:25:17.113Z,2.00
2019-01-16T12:27:43.902Z,2.10
2019-01-16T12:30:15.119Z,2.10
2019-01-16T12:34:44.003Z,2.10
2019-01-16T12:37:16.656Z,2.10
2019-01-16T12:41:50.521Z,2.20
2019-01-16T12:44:18.390Z,2.20
2019-01-16T12:47:22.063Z,2.20
2019-01-16T12:49:54.725Z,2.30
2019-01-16T12:52:31.511Z,2.30
2019-01-16T12:55:00.179Z,2.40
2019-01-16T12:57:27.925Z,2.40
2019-01-16T12:59:56.551Z,2.40
2019-01-16T13:02:23.368Z,2.50
2019-01-16T13:04:51.158Z,2.50
2019-01-16T13:08:51.166Z,2.50
2019-01-16T13:12:18.324Z,2.50
2019-01-16T13:27:35.983Z,2.50
2019-01-16T13:30:09.639Z,2.60
2019-01-16T13:34:41.438Z,2.60
2019-01-16T13:37:09.480Z,2.60
2019-01-16T13:40:44.195Z,2.60
2019-01-16T13:43:29.918Z,2.60
2019-01-16T13:46:17.763Z,2.70
2019-01-16T13:48:52.811Z,2.70
2019-01-16T13:51:22.071Z,2.70
2019-01-16T13:53:50.884Z,2.70
2019-01-16T13:56:18.847Z,2.70
2019-01-16T13:58:48.455Z,2.70
2019-01-16T14:01:31.311Z,2.70
2019-01-16T14:04:29.059Z,2.70
2019-01-16T14:06:58.793Z,2.80
2019-01-16T14:09:56.423Z,2.80
2019-01-16T14:12:24.682Z,2.90
2019-01-16T14:16:53.801Z,3.00
2019-01-16T14:19:24.407Z,3.10
2019-01-16T14:23:53.090Z,3.20
2019-01-16T14:26:36.746Z,3.20
2019-01-16T14:29:38.433Z,3.20
2019-01-16T14:32:11.268Z,3.30
2019-01-16T14:34:42.087Z,3.20
2019-01-16T14:37:10.001Z,3.20
2019-01-16T14:39:46.627Z,3.20
2019-01-16T14:42:17.441Z,3.20
2019-01-16T14:44:47.206Z,3.20
2019-01-16T14:47:47.015Z,3.20
2019-01-16T14:50:15.711Z,3.20
2019-01-16T14:52:43.613Z,3.30
2019-01-16T14:55:15.337Z,3.30
2019-01-16T14:57:43.335Z,3.30
2019-01-16T15:01:20.122Z,3.30
2019-01-16T15:03:48.973Z,3.30
2019-01-16T15:06:23.680Z,3.20
2019-01-16T15:08:54.311Z,3.20
2019-01-16T15:11:22.314Z,3.20
2019-01-16T15:13:50.154Z,3.20
2019-01-16T15:16:18.095Z,3.20
2019-01-16T15:18:47.305Z,3.20
2019-01-16T15:22:19.274Z,3.20
2019-01-16T15:24:48.178Z,3.20
2019-01-16T15:27:15.923Z,3.10
2019-01-16T15:29:47.575Z,3.10
2019-01-16T15:34:18.670Z,3.10
2019-01-16T15:36:48.390Z,3.00
2019-01-16T15:39:16.024Z,2.90
2019-01-16T15:41:44.810Z,2.90
2019-01-16T15:44:14.452Z,2.90
2019-01-16T15:47:12.282Z,2.90
2019-01-16T15:49:40.122Z,2.90
2019-01-16T15:52:37.763Z,2.80
2019-01-16T15:57:06.638Z,2.80
2019-01-16T15:59:35.282Z,2.80
2019-01-16T16:02:05.992Z,2.80
2019-01-16T16:04:38.739Z,2.70
2019-01-16T16:07:06.545Z,2.70
2019-01-16T16:09:34.362Z,2.70
2019-01-16T16:12:04.985Z,2.70
2019-01-16T16:14:34.676Z,2.70
2019-01-16T16:17:02.546Z,2.70
2019-01-16T16:19:31.243Z,2.60
2019-01-16T16:22:29.907Z,2.60
2019-01-16T16:25:00.514Z,2.60
2019-01-16T16:27:27.435Z,2.60
2019-01-16T16:29:57.231Z,2.60
2019-01-16T16:32:25.136Z,2.60
2019-01-16T16:35:04.699Z,2.60
2019-01-16T16:37:40.555Z,2.50
2019-01-16T16:40:22.222Z,2.50
2019-01-16T16:42:51.042Z,2.50
2019-01-16T16:45:18.739Z,2.50
2019-01-16T16:47:49.468Z,2.50
2019-01-16T16:50:21.375Z,2.50
2019-01-16T16:53:20.023Z,2.50
2019-01-16T16:57:48.915Z,2.50
2019-01-16T17:02:19.614Z,2.50
2019-01-16T17:04:46.519Z,2.40
2019-01-16T17:07:14.426Z,2.50
2019-01-16T17:09:43.259Z,2.40
2019-01-16T17:12:15.087Z,2.40
2019-01-16T17:14:42.903Z,2.40
2019-01-16T17:17:10.593Z,2.40
2019-01-16T17:19:39.275Z,2.40
2019-01-16T17:22:06.190Z,2.40
2019-01-16T17:25:38.019Z,2.40
2019-01-16T17:28:19.769Z,2.40
2019-01-16T17:30:48.390Z,2.30
2019-01-16T17:33:21.022Z,2.30
2019-01-16T17:35:58.803Z,2.30
2019-01-16T17:38:29.405Z,2.20
2019-01-16T17:41:59.188Z,2.20
2019-01-16T17:44:27.829Z,2.20
2019-01-16T17:46:55.798Z,2.20
2019-01-16T17:49:22.611Z,2.10
2019-01-16T17:51:50.250Z,2.10
2019-01-16T17:55:15.963Z,2.10
2019-01-16T17:57:44.648Z,2.20
2019-01-16T18:00:14.243Z,2.20
2019-01-16T18:02:44.958Z,2.20
2019-01-16T18:05:12.747Z,2.20
2019-01-16T18:09:46.526Z,2.10
2019-01-16T18:12:14.321Z,2.10
2019-01-16T18:14:56.016Z,2.10
2019-01-16T18:17:24.810Z,2.10
2019-01-16T18:20:07.398Z,2.20
2019-01-16T18:22:34.316Z,2.20
2019-01-16T18:25:06.966Z,2.20
2019-01-16T18:27:34.823Z,2.20
2019-01-16T18:30:01.658Z,2.20
2019-01-16T18:32:35.275Z,2.20
2019-01-16T18:35:06.852Z,2.20
2019-01-16T18:37:34.733Z,2.20
2019-01-16T18:40:04.430Z,2.20
2019-01-16T18:42:32.282Z,2.20
2019-01-16T18:45:00.957Z,2.20
2019-01-16T18:47:30.728Z,2.20
2019-01-16T18:50:13.420Z,2.20
2019-01-16T18:52:51.847Z,2.20
2019-01-16T18:55:18.899Z,2.20
2019-01-16T18:57:47.664Z,2.20
2019-01-16T19:00:20.179Z,2.20
2019-01-16T19:02:52.773Z,2.20
2019-01-16T19:05:27.393Z,2.20
2019-01-16T19:07:55.211Z,2.20
2019-01-16T19:10:23.168Z,2.20
2019-01-16T19:12:50.877Z,2.20
2019-01-16T19:15:27.866Z,2.20
2019-01-16T19:17:57.664Z,2.20
2019-01-16T19:20:25.551Z,2.20
2019-01-16T19:22:58.131Z,2.20
2019-01-16T19:25:23.567Z,2.20
2019-01-16T19:28:01.203Z,2.20
2019-01-16T19:30:31.895Z,2.20
2019-01-16T19:33:03.613Z,2.10
2019-01-16T19:35:45.269Z,2.10
2019-01-16T19:39:16.150Z,2.10
2019-01-16T19:41:47.788Z,2.10
2019-01-16T19:44:21.548Z,2.10
2019-01-16T19:46:49.175Z,2.10
2019-01-16T19:49:24.062Z,2.10
2019-01-16T19:51:51.737Z,2.10
2019-01-16T19:54:20.393Z,2.10
2019-01-16T19:56:48.401Z,2.10
2019-01-16T19:59:20.077Z,2.20
2019-01-16T20:03:52.814Z,2.10
2019-01-16T20:06:20.663Z,2.10
2019-01-16T20:08:50.315Z,2.10
2019-01-16T20:11:18.183Z,2.20
2019-01-16T20:13:48.858Z,2.10
2019-01-16T20:16:31.975Z,2.10
2019-01-16T20:19:21.380Z,2.10
2019-01-16T20:21:49.460Z,2.10
2019-01-16T20:24:18.227Z,2.10
2019-01-16T20:26:46.035Z,2.10
2019-01-16T20:29:14.089Z,2.10
2019-01-16T20:31:46.858Z,2.10
2019-01-16T20:34:15.471Z,2.10
2019-01-16T20:36:48.075Z,2.10
2019-01-16T20:39:22.731Z,2.00
2019-01-16T20:41:50.583Z,2.00
2019-01-16T20:44:17.452Z,2.00
2019-01-16T20:46:45.427Z,2.00
2019-01-16T20:49:19.065Z,2.00
2019-01-16T20:53:47.894Z,1.90
2019-01-16T20:56:16.659Z,1.90
2019-01-16T21:00:46.403Z,1.90
2019-01-16T21:05:18.221Z,1.90
2019-01-16T21:07:50.818Z,1.90
2019-01-16T21:10:20.736Z,2.00
2019-01-16T21:12:48.559Z,2.00
2019-01-16T21:15:17.455Z,1.90
2019-01-16T21:17:50.207Z,1.90
2019-01-16T21:20:20.931Z,1.90
2019-01-16T21:22:52.535Z,1.90
2019-01-16T21:25:46.271Z,1.90
2019-01-16T21:28:14.909Z,1.90
2019-01-16T21:30:42.903Z,1.90
2019-01-16T21:33:10.834Z,1.90
2019-01-16T21:35:38.694Z,1.90
2019-01-16T21:38:11.294Z,1.90
2019-01-16T21:40:41.926Z,1.90
2019-01-16T21:43:14.696Z,1.90
2019-01-16T21:47:07.127Z,1.90
2019-01-16T21:49:34.803Z,1.90
2019-01-16T21:54:05.655Z,1.90
2019-01-16T21:56:33.503Z,1.90
2019-01-16T21:59:01.343Z,1.90
2019-01-16T22:01:29.266Z,1.90
2019-01-16T22:03:56.951Z,1.90
2019-01-16T22:06:28.789Z,1.90
2019-01-16T22:10:58.773Z,1.90
2019-01-16T22:13:30.488Z,1.90
2019-01-16T22:15:58.214Z,1.90
2019-01-16T22:18:58.873Z,1.90
2019-01-16T22:21:25.763Z,1.90
2019-01-16T22:25:59.446Z,1.90
2019-01-16T22:28:26.290Z,1.90
2019-01-16T22:30:54.050Z,1.80
2019-01-16T22:33:25.705Z,1.80
2019-01-16T22:35:53.495Z,1.80
2019-01-16T22:38:20.341Z,1.80
2019-01-16T22:41:08.015Z,1.80
2019-01-16T22:43:35.578Z,1.80
2019-01-16T22:46:03.269Z,1.80
2019-01-16T22:50:36.425Z,1.80
2019-01-16T22:53:06.115Z,1.80
2019-01-16T22:55:33.996Z,1.80
2019-01-16T22:58:01.815Z,1.80
2019-01-16T23:00:34.200Z,1.80
2019-01-16T23:03:01.980Z,1.80
2019-01-16T23:07:32.703Z,1.80
2019-01-16T23:10:11.357Z,1.80
2019-01-16T23:12:40.004Z,1.80
2019-01-16T23:15:08.159Z,1.80
2019-01-16T23:17:36.075Z,1.90
2019-01-16T23:20:04.800Z,1.80
2019-01-16T23:22:32.760Z,1.80
2019-01-16T23:25:03.543Z,1.90
2019-01-16T23:27:30.348Z,1.90
2019-01-16T23:29:58.298Z,1.80
2019-01-16T23:32:25.132Z,1.80
2019-01-16T23:35:25.989Z,1.80
2019-01-16T23:37:55.752Z,1.80
2019-01-16T23:40:23.758Z,1.80
2019-01-16T23:42:51.683Z,1.80
2019-01-16T23:47:26.734Z,1.80
2019-01-16T23:49:56.333Z,1.80
2019-01-16T23:52:24.396Z,1.70
2019-01-16T23:54:51.264Z,1.70
2019-01-16T23:57:18.072Z,1.70
2019-01-16T23:59:45.988Z,1.70
